Terminal Aerodrome Forecast
Issued by NWS Austin/San Antonio, TX

Home | Current Version | Previous Version | Text Only | Print | Product List | Glossary On
Versions: 1 2 3 4 5 6 7 8 9 10 11 12 13 14
000
FTUS44 KEWX 200500
TAFAUS
TAF
KAUS 200530Z 2006/2112 VRB02KT P6SM FEW060
     FM200700 VRB02KT P6SM FEW020 SCT040
      TEMPO 2012/2015 BKN020
     FM201600 06006KT P6SM SCT050 BKN200=

USA.gov is the U.S. government's official web portal to all federal, state and local government web resources and services.